Time;durP1;ratioP1;P1;durP2;ratioP2;P2;SDS_P1;SDS_P2;PMS_P1;PMS_P2;Temp;Humidity;BMP_temperature;BMP_pressure;BME280_temperature;BME280_humidity;BME280_pressure;Samples;Min_cycle;Max_cycle;Signal;HPM_P1;HPM_P2
2022/03/30 00:00:56;;;;;;;8.90;3.03;;;;;;;;;;5032608;28;20026;-64
2022/03/30 00:03:21;;;;;;;7.97;3.05;;;;;;;;;;5031461;28;20421;-63
2022/03/30 00:05:47;;;;;;;14.90;3.53;;;;;;;;;;5027344;28;20075;-64
2022/03/30 00:08:13;;;;;;;20.33;4.45;;;;;;;;;;5052320;22;20045;-69
2022/03/30 00:10:40;;;;;;;9.50;2.95;;;;;;;;;;5034907;28;20104;-70
2022/03/30 00:13:06;;;;;;;16.35;4.13;;;;;;;;;;5027691;28;20037;-69
2022/03/30 00:15:31;;;;;;;8.35;2.60;;;;;;;;;;5014565;28;20022;-69
2022/03/30 00:17:57;;;;;;;13.32;3.03;;;;;;;;;;5014697;28;20068;-69
2022/03/30 00:20:24;;;;;;;12.52;3.40;;;;;;;;;;5014456;28;20022;-70
2022/03/30 00:22:49;;;;;;;8.85;3.10;;;;;;;;;;5028688;28;20490;-69
2022/03/30 00:25:15;;;;;;;11.43;3.45;;;;;;;;;;5036639;28;20021;-70
2022/03/30 00:27:46;;;;;;;12.52;2.72;;;;;;;;;;5028281;28;20110;-69
2022/03/30 00:30:13;;;;;;;7.00;3.13;;;;;;;;;;5030352;28;20025;-69
2022/03/30 00:32:39;;;;;;;12.80;3.53;;;;;;;;;;5024456;28;20081;-69
2022/03/30 00:35:05;;;;;;;11.85;3.10;;;;;;;;;;5032592;28;20120;-69
2022/03/30 00:37:31;;;;;;;12.48;3.30;;;;;;;;;;5032017;28;20029;-69
2022/03/30 00:39:57;;;;;;;9.85;3.30;;;;;;;;;;5032685;28;20033;-69
2022/03/30 03:52:10;;;;;;;11.73;2.80;;;;;;;;;;5043393;28;20055;-69
2022/03/30 03:54:36;;;;;;;8.43;3.00;;;;;;;;;;5041558;28;20057;-70
2022/03/30 03:57:02;;;;;;;10.43;3.30;;;;;;;;;;5033934;28;20026;-70
2022/03/30 03:59:28;;;;;;;8.60;2.80;;;;;;;;;;5035271;28;20571;-69
2022/03/30 04:01:54;;;;;;;10.70;2.77;;;;;;;;;;5028202;28;20057;-69
2022/03/30 04:04:20;;;;;;;8.90;3.30;;;;;;;;;;5026329;28;20520;-70
2022/03/30 04:06:46;;;;;;;11.80;3.30;;;;;;;;;;5033497;28;20033;-70
2022/03/30 04:09:12;;;;;;;13.70;2.97;;;;;;;;;;5036667;28;20080;-69
2022/03/30 04:11:38;;;;;;;7.97;3.10;;;;;;;;;;5036823;28;20029;-70
2022/03/30 04:14:04;;;;;;;16.07;3.67;;;;;;;;;;5042553;28;20026;-70
2022/03/30 04:16:31;;;;;;;10.40;3.43;;;;;;;;;;5036787;28;20040;-70
2022/03/30 04:18:57;;;;;;;11.73;3.67;;;;;;;;;;5035178;28;20029;-69
2022/03/30 04:21:23;;;;;;;12.87;4.23;;;;;;;;;;5027980;28;20028;-70
2022/03/30 04:23:48;;;;;;;11.17;3.10;;;;;;;;;;5033807;28;20041;-71
2022/03/30 04:26:14;;;;;;;14.63;3.83;;;;;;;;;;5039845;28;20096;-70
2022/03/30 04:28:40;;;;;;;11.40;3.40;;;;;;;;;;5052183;28;20033;-69
2022/03/30 04:31:10;;;;;;;11.53;3.50;;;;;;;;;;5034004;28;20021;-68
2022/03/30 04:33:37;;;;;;;13.17;4.00;;;;;;;;;;5022973;28;20068;-68
2022/03/30 04:36:04;;;;;;;12.70;4.03;;;;;;;;;;5021565;28;20013;-70
2022/03/30 04:38:30;;;;;;;10.67;4.10;;;;;;;;;;5025516;28;20025;-69
2022/03/30 04:40:56;;;;;;;11.40;3.83;;;;;;;;;;5033958;28;20052;-69
2022/03/30 04:43:22;;;;;;;10.50;3.63;;;;;;;;;;5035371;28;20030;-69
2022/03/30 04:45:48;;;;;;;13.17;3.90;;;;;;;;;;5033584;28;20163;-70
2022/03/30 04:48:14;;;;;;;12.10;3.97;;;;;;;;;;5012897;28;20124;-69
2022/03/30 04:50:40;;;;;;;13.40;3.87;;;;;;;;;;5027607;28;20021;-70
2022/03/30 04:53:06;;;;;;;12.97;3.60;;;;;;;;;;5031902;28;20039;-70
2022/03/30 04:55:32;;;;;;;11.40;3.90;;;;;;;;;;5033637;28;20470;-70
2022/03/30 04:57:58;;;;;;;9.57;3.50;;;;;;;;;;5033116;28;20044;-69
2022/03/30 05:00:24;;;;;;;12.97;4.50;;;;;;;;;;5025247;28;20104;-69
2022/03/30 05:02:51;;;;;;;14.13;4.20;;;;;;;;;;5034940;28;20025;-70
2022/03/30 05:05:17;;;;;;;12.47;4.23;;;;;;;;;;5037812;28;20034;-70
2022/03/30 05:07:42;;;;;;;12.57;4.57;;;;;;;;;;5034051;28;20437;-69
2022/03/30 05:10:13;;;;;;;13.73;3.80;;;;;;;;;;5031983;28;20064;-69
2022/03/30 05:12:39;;;;;;;14.80;4.30;;;;;;;;;;5033184;28;20033;-70
2022/03/30 05:15:05;;;;;;;12.60;4.17;;;;;;;;;;5032879;28;20393;-70
2022/03/30 05:17:31;;;;;;;17.87;4.23;;;;;;;;;;5032419;28;20065;-69
2022/03/30 05:19:58;;;;;;;10.40;3.53;;;;;;;;;;5033800;28;20029;-70
2022/03/30 05:22:25;;;;;;;8.55;3.55;;;;;;;;;;5032139;28;20034;-69
2022/03/30 05:24:52;;;;;;;11.93;4.20;;;;;;;;;;5034922;28;20528;-67
2022/03/30 05:27:18;;;;;;;12.88;4.18;;;;;;;;;;5031067;28;20033;-67
2022/03/30 05:29:44;;;;;;;13.10;4.00;;;;;;;;;;5033962;28;20132;-66
2022/03/30 05:32:10;;;;;;;8.87;3.50;;;;;;;;;;5034206;28;20504;-67
2022/03/30 05:34:36;;;;;;;11.57;3.47;;;;;;;;;;5032805;28;20029;-68
2022/03/30 05:37:03;;;;;;;9.05;3.10;;;;;;;;;;5030811;28;20112;-67
2022/03/30 05:39:30;;;;;;;8.55;3.10;;;;;;;;;;5033013;28;20037;-67
2022/03/30 05:41:56;;;;;;;9.43;3.60;;;;;;;;;;5032754;28;20116;-68
2022/03/30 05:44:22;;;;;;;10.55;3.30;;;;;;;;;;5030598;28;20551;-68
2022/03/30 05:46:48;;;;;;;12.13;3.70;;;;;;;;;;5031154;28;20025;-66
2022/03/30 05:49:14;;;;;;;14.93;4.05;;;;;;;;;;5032097;28;20065;-66
2022/03/30 05:51:40;;;;;;;11.13;3.65;;;;;;;;;;5030473;28;20041;-66
2022/03/30 05:54:07;;;;;;;15.63;3.58;;;;;;;;;;5034930;28;20029;-67
2022/03/30 05:59:17;;;;;;;9.82;3.10;;;;;;;;;;5022605;28;20040;-66
2022/03/30 06:01:43;;;;;;;14.68;4.25;;;;;;;;;;5022565;28;20034;-66
2022/03/30 06:04:09;;;;;;;12.45;3.65;;;;;;;;;;5027954;28;20104;-66
2022/03/30 06:06:35;;;;;;;7.43;3.22;;;;;;;;;;5029042;28;20034;-65
2022/03/30 06:09:04;;;;;;;10.90;3.40;;;;;;;;;;5060513;23;20119;-73
2022/03/30 06:11:30;;;;;;;11.80;3.13;;;;;;;;;;5057048;28;20039;-73
2022/03/30 06:13:58;;;;;;;12.50;3.75;;;;;;;;;;5065666;28;20040;-74
2022/03/30 06:16:24;;;;;;;11.98;3.40;;;;;;;;;;5070822;28;20040;-74
2022/03/30 06:18:50;;;;;;;15.35;3.13;;;;;;;;;;5073288;28;20028;-74
2022/03/30 06:21:16;;;;;;;12.40;4.03;;;;;;;;;;5069939;28;20029;-74
2022/03/30 06:23:42;;;;;;;12.25;3.53;;;;;;;;;;5072198;28;20032;-74
2022/03/30 06:26:08;;;;;;;14.10;3.40;;;;;;;;;;5071535;28;20025;-74
2022/03/30 06:28:34;;;;;;;11.93;3.83;;;;;;;;;;5068131;28;20041;-72
2022/03/30 06:31:01;;;;;;;7.85;2.72;;;;;;;;;;5071790;28;20035;-72
2022/03/30 06:33:27;;;;;;;11.20;2.95;;;;;;;;;;5070548;28;20036;-73
2022/03/30 06:35:53;;;;;;;9.05;2.63;;;;;;;;;;5077782;28;20028;-73
2022/03/30 06:38:19;;;;;;;12.32;3.90;;;;;;;;;;5056133;28;20027;-73
2022/03/30 06:40:47;;;;;;;11.45;3.78;;;;;;;;;;5055430;28;20060;-76
2022/03/30 06:43:13;;;;;;;13.50;3.45;;;;;;;;;;5058097;28;20017;-76
2022/03/30 06:45:40;;;;;;;13.73;5.18;;;;;;;;;;5070350;28;20030;-76
2022/03/30 06:48:06;;;;;;;14.75;3.80;;;;;;;;;;5073598;28;20017;-77
2022/03/30 06:50:32;;;;;;;8.75;3.38;;;;;;;;;;5071413;28;20025;-74
2022/03/30 06:52:59;;;;;;;10.30;3.58;;;;;;;;;;5074932;28;20029;-73
2022/03/30 06:55:25;;;;;;;15.15;3.75;;;;;;;;;;5071784;28;20036;-74
2022/03/30 06:57:51;;;;;;;9.73;3.35;;;;;;;;;;5071117;28;20033;-74
2022/03/30 07:00:17;;;;;;;7.78;2.92;;;;;;;;;;5074705;28;20021;-74
2022/03/30 07:02:43;;;;;;;9.18;3.38;;;;;;;;;;5080451;28;20033;-74
2022/03/30 07:05:10;;;;;;;11.55;3.05;;;;;;;;;;5067652;28;20056;-73
2022/03/30 07:10:23;;;;;;;9.57;3.25;;;;;;;;;;5054233;28;20519;-77
2022/03/30 07:12:50;;;;;;;10.73;3.83;;;;;;;;;;5035885;28;20021;-76
2022/03/30 07:15:17;;;;;;;11.55;4.45;;;;;;;;;;5052487;28;20100;-77
2022/03/30 07:17:50;;;;;;;12.85;4.00;;;;;;;;;;5056868;28;20120;-76
2022/03/30 07:20:16;;;;;;;11.65;3.60;;;;;;;;;;5035421;28;20029;-73
2022/03/30 07:22:43;;;;;;;9.23;3.45;;;;;;;;;;5048278;28;20037;-72
2022/03/30 07:25:10;;;;;;;16.50;3.75;;;;;;;;;;5054038;28;20028;-73
2022/03/30 07:27:40;;;;;;;12.88;3.25;;;;;;;;;;5059895;28;20033;-74
2022/03/30 07:30:07;;;;;;;16.35;4.03;;;;;;;;;;5032584;28;20029;-73
2022/03/30 07:32:34;;;;;;;8.48;3.05;;;;;;;;;;5054954;28;20021;-74
2022/03/30 07:35:00;;;;;;;15.30;3.47;;;;;;;;;;5039055;28;20025;-73
2022/03/30 07:37:26;;;;;;;15.45;3.60;;;;;;;;;;5034990;28;20036;-73
2022/03/30 07:39:52;;;;;;;13.70;4.03;;;;;;;;;;5041350;28;20032;-72
2022/03/30 07:42:18;;;;;;;13.48;3.65;;;;;;;;;;5043355;28;20064;-74
2022/03/30 07:44:44;;;;;;;15.90;3.25;;;;;;;;;;5049371;28;20035;-73
2022/03/30 07:47:10;;;;;;;11.00;3.13;;;;;;;;;;5055401;28;20070;-73
2022/03/30 07:49:36;;;;;;;14.25;3.55;;;;;;;;;;5036520;28;20108;-76
2022/03/30 07:52:03;;;;;;;11.93;3.13;;;;;;;;;;5057330;28;20036;-73
2022/03/30 07:54:29;;;;;;;17.42;3.67;;;;;;;;;;5035179;28;20029;-74
2022/03/30 07:56:55;;;;;;;12.13;3.78;;;;;;;;;;5052847;28;20053;-73
2022/03/30 07:59:21;;;;;;;9.50;3.00;;;;;;;;;;5032847;28;20466;-73
2022/03/30 08:01:47;;;;;;;16.70;3.75;;;;;;;;;;5033627;28;20056;-73
2022/03/30 08:04:14;;;;;;;14.20;3.75;;;;;;;;;;5055159;28;20044;-73
2022/03/30 08:06:40;;;;;;;14.60;3.47;;;;;;;;;;5049729;28;20077;-72
2022/03/30 08:09:06;;;;;;;13.45;3.85;;;;;;;;;;5053283;28;20091;-73
2022/03/30 08:11:32;;;;;;;11.40;3.45;;;;;;;;;;5053644;28;20441;-75
2022/03/30 08:13:58;;;;;;;13.50;3.88;;;;;;;;;;5054774;28;20033;-74
2022/03/30 08:16:25;;;;;;;16.33;4.40;;;;;;;;;;5052844;28;24033;-73
2022/03/30 08:18:51;;;;;;;11.30;3.97;;;;;;;;;;5052474;28;20029;-74
2022/03/30 08:24:02;;;;;;;11.63;3.63;;;;;;;;;;5058082;28;20050;-73
2022/03/30 08:26:28;;;;;;;14.98;4.13;;;;;;;;;;5053131;28;20033;-74
2022/03/30 08:28:54;;;;;;;11.93;3.05;;;;;;;;;;5055307;28;20541;-72
2022/03/30 08:31:20;;;;;;;10.85;2.88;;;;;;;;;;5054558;28;20078;-72
2022/03/30 08:33:46;;;;;;;10.23;3.33;;;;;;;;;;5039887;28;20028;-72
2022/03/30 08:36:12;;;;;;;11.48;3.38;;;;;;;;;;5054918;28;20031;-73
2022/03/30 08:38:38;;;;;;;15.60;3.75;;;;;;;;;;5037827;28;20374;-71
2022/03/30 08:41:04;;;;;;;6.63;3.15;;;;;;;;;;5056870;28;20111;-73
2022/03/30 08:43:30;;;;;;;11.05;3.40;;;;;;;;;;5041055;28;20049;-72
2022/03/30 08:45:59;;;;;;;13.90;2.90;;;;;;;;;;5038065;28;20040;-71
2022/03/30 08:48:25;;;;;;;9.50;2.65;;;;;;;;;;5058316;28;20185;-73
2022/03/30 08:50:52;;;;;;;11.27;3.22;;;;;;;;;;5057379;28;20117;-73
2022/03/30 08:53:19;;;;;;;9.05;2.63;;;;;;;;;;5054972;28;20090;-72
2022/03/30 08:55:45;;;;;;;7.45;2.60;;;;;;;;;;5052907;28;20029;-73
2022/03/30 08:58:12;;;;;;;9.93;2.53;;;;;;;;;;5062180;28;20296;-73
2022/03/30 09:00:38;;;;;;;7.45;2.13;;;;;;;;;;5055064;28;20459;-73
2022/03/30 09:03:06;;;;;;;6.82;2.10;;;;;;;;;;5056077;28;20282;-73
2022/03/30 09:05:35;;;;;;;9.45;2.15;;;;;;;;;;5060136;28;20060;-71
2022/03/30 09:08:11;;;;;;;9.25;2.50;;;;;;;;;;5052057;28;20020;-73
2022/03/30 09:10:38;;;;;;;11.77;3.05;;;;;;;;;;5040838;28;20086;-74
2022/03/30 09:13:04;;;;;;;9.23;2.40;;;;;;;;;;5058651;28;20036;-74
2022/03/30 09:15:31;;;;;;;11.40;3.00;;;;;;;;;;5046986;28;20070;-73
2022/03/30 09:17:58;;;;;;;12.90;3.00;;;;;;;;;;5037822;28;20062;-73
2022/03/30 09:20:24;;;;;;;6.47;3.15;;;;;;;;;;5056602;28;20040;-73
2022/03/30 09:22:53;;;;;;;11.93;2.75;;;;;;;;;;5054440;28;20037;-72
2022/03/30 09:25:19;;;;;;;9.32;2.75;;;;;;;;;;5057012;28;20036;-71
2022/03/30 09:27:46;;;;;;;7.25;2.80;;;;;;;;;;5051003;28;20060;-72
2022/03/30 09:30:15;;;;;;;10.52;3.05;;;;;;;;;;5052303;28;20033;-73
2022/03/30 09:32:41;;;;;;;8.77;2.38;;;;;;;;;;5058894;28;20031;-73
2022/03/30 09:35:19;;;;;;;9.20;2.17;;;;;;;;;;5055321;28;20100;-73
2022/03/30 09:37:45;;;;;;;7.97;2.67;;;;;;;;;;5038959;28;20032;-74
2022/03/30 09:40:11;;;;;;;5.00;2.50;;;;;;;;;;5055438;28;20040;-73
2022/03/30 09:42:37;;;;;;;8.70;2.90;;;;;;;;;;5051057;28;20087;-73
2022/03/30 09:45:03;;;;;;;7.93;2.33;;;;;;;;;;5050347;28;20029;-73
2022/03/30 09:47:36;;;;;;;12.60;2.58;;;;;;;;;;5052466;28;20108;-73
2022/03/30 09:50:06;;;;;;;8.55;3.38;;;;;;;;;;5035059;28;20053;-73
2022/03/30 09:52:33;;;;;;;8.13;2.45;;;;;;;;;;5053469;28;20017;-73
2022/03/30 09:55:03;;;;;;;6.50;2.50;;;;;;;;;;5053731;28;20021;-72
2022/03/30 09:57:38;;;;;;;6.38;2.33;;;;;;;;;;5059632;28;20104;-72
2022/03/30 10:00:07;;;;;;;9.77;2.70;;;;;;;;;;5054556;28;20684;-73
2022/03/30 10:02:34;;;;;;;8.07;2.58;;;;;;;;;;5047205;28;20025;-73
2022/03/30 10:05:01;;;;;;;5.85;2.72;;;;;;;;;;5043028;28;20203;-73
2022/03/30 10:07:28;;;;;;;11.98;2.25;;;;;;;;;;5033672;28;20039;-74
2022/03/30 10:09:56;;;;;;;10.02;3.63;;;;;;;;;;5065174;28;20032;-72
2022/03/30 10:12:22;;;;;;;6.95;2.17;;;;;;;;;;5053756;28;20029;-72
2022/03/30 10:14:49;;;;;;;6.45;2.40;;;;;;;;;;5051146;28;20049;-68
2022/03/30 10:17:15;;;;;;;9.20;2.70;;;;;;;;;;5056058;28;20033;-69
2022/03/30 10:19:44;;;;;;;11.20;3.50;;;;;;;;;;5059561;28;20131;-73
2022/03/30 10:22:10;;;;;;;7.63;2.80;;;;;;;;;;5038785;28;20086;-73
2022/03/30 10:24:49;;;;;;;7.90;2.50;;;;;;;;;;5040121;28;20591;-72
2022/03/30 10:27:22;;;;;;;10.02;2.55;;;;;;;;;;5049533;28;20039;-74
2022/03/30 10:30:00;;;;;;;5.80;2.10;;;;;;;;;;5059329;28;20036;-74
2022/03/30 10:32:27;;;;;;;6.82;2.95;;;;;;;;;;5057874;28;20287;-74
2022/03/30 10:34:56;;;;;;;10.23;2.53;;;;;;;;;;5063338;28;20044;-73
2022/03/30 10:37:42;;;;;;;4.90;2.50;;;;;;;;;;5061688;28;20033;-75
2022/03/30 10:40:08;;;;;;;7.05;2.67;;;;;;;;;;5059448;28;20033;-73
2022/03/30 10:42:46;;;;;;;6.93;2.55;;;;;;;;;;5058890;28;20033;-75
2022/03/30 10:45:23;;;;;;;7.38;2.80;;;;;;;;;;5040215;28;20059;-74
2022/03/30 10:48:08;;;;;;;7.63;2.70;;;;;;;;;;5040393;28;20521;-74
2022/03/30 10:50:46;;;;;;;10.45;2.80;;;;;;;;;;5042671;28;20025;-74
2022/03/30 10:53:30;;;;;;;5.75;2.60;;;;;;;;;;5058699;28;20063;-75
2022/03/30 10:56:14;;;;;;;6.75;2.70;;;;;;;;;;5057339;28;20522;-73
2022/03/30 10:58:46;;;;;;;8.40;2.88;;;;;;;;;;5065251;28;20502;-74
2022/03/30 11:01:22;;;;;;;9.95;3.58;;;;;;;;;;5051846;28;20484;-74
2022/03/30 11:04:02;;;;;;;11.52;3.13;;;;;;;;;;5066733;28;20418;-72
2022/03/30 11:06:29;;;;;;;8.63;3.17;;;;;;;;;;5042504;28;20091;-73
2022/03/30 11:08:56;;;;;;;8.65;3.72;;;;;;;;;;5057818;28;20048;-67
2022/03/30 11:11:42;;;;;;;7.50;2.90;;;;;;;;;;5057266;28;20086;-72
2022/03/30 11:14:27;;;;;;;10.77;4.40;;;;;;;;;;5059042;28;20090;-73
2022/03/30 11:16:54;;;;;;;9.68;3.13;;;;;;;;;;5059088;28;20558;-72
2022/03/30 11:19:22;;;;;;;11.07;3.10;;;;;;;;;;5047636;28;20036;-75
2022/03/30 11:22:08;;;;;;;8.00;2.97;;;;;;;;;;5058609;28;20040;-73
2022/03/30 11:24:34;;;;;;;6.00;2.90;;;;;;;;;;5046923;28;20047;-71
2022/03/30 11:27:00;;;;;;;11.13;3.08;;;;;;;;;;5057947;28;20546;-72
2022/03/30 11:29:47;;;;;;;9.73;2.90;;;;;;;;;;5067501;28;20052;-74
2022/03/30 11:32:19;;;;;;;5.45;2.78;;;;;;;;;;5059728;28;20075;-72
2022/03/30 11:34:46;;;;;;;9.75;3.30;;;;;;;;;;5040324;28;20025;-72
2022/03/30 11:37:12;;;;;;;8.07;4.07;;;;;;;;;;5049686;28;20032;-73
2022/03/30 11:39:39;;;;;;;8.32;3.25;;;;;;;;;;5053879;28;20025;-73
2022/03/30 11:42:05;;;;;;;11.25;3.78;;;;;;;;;;5072443;28;20106;-74
2022/03/30 11:47:19;;;;;;;8.07;3.15;;;;;;;;;;5052433;28;20043;-72
2022/03/30 11:49:52;;;;;;;8.48;3.60;;;;;;;;;;5055344;28;20020;-73
2022/03/30 11:52:18;;;;;;;10.32;4.28;;;;;;;;;;5055621;28;20021;-72
2022/03/30 11:54:48;;;;;;;13.43;4.90;;;;;;;;;;5055561;28;20078;-72
2022/03/30 11:57:15;;;;;;;9.88;4.50;;;;;;;;;;5050443;28;20033;-72
2022/03/30 11:59:41;;;;;;;8.65;4.80;;;;;;;;;;5058016;28;20045;-72
2022/03/30 12:02:07;;;;;;;10.32;4.13;;;;;;;;;;5054316;28;20036;-72
2022/03/30 12:04:34;;;;;;;10.98;4.93;;;;;;;;;;5055657;28;20017;-68
2022/03/30 12:07:00;;;;;;;10.63;5.30;;;;;;;;;;5053812;28;20029;-69
2022/03/30 12:09:26;;;;;;;9.00;4.43;;;;;;;;;;5067571;22;20505;-66
2022/03/30 12:11:52;;;;;;;10.23;4.78;;;;;;;;;;5039825;28;20029;-67
2022/03/30 12:14:27;;;;;;;9.23;4.53;;;;;;;;;;5035090;28;20393;-69
2022/03/30 12:16:54;;;;;;;8.23;4.22;;;;;;;;;;5035258;28;20508;-67
2022/03/30 12:19:20;;;;;;;8.70;4.63;;;;;;;;;;5029594;28;20052;-66
2022/03/30 12:21:46;;;;;;;9.35;4.13;;;;;;;;;;5019047;28;20038;-65
2022/03/30 12:24:16;;;;;;;9.88;3.95;;;;;;;;;;5013076;28;20030;-64
2022/03/30 12:26:42;;;;;;;10.45;4.53;;;;;;;;;;4999700;28;20117;-66
2022/03/30 12:29:09;;;;;;;7.03;3.58;;;;;;;;;;5033587;28;20037;-68
2022/03/30 12:31:46;;;;;;;7.38;3.55;;;;;;;;;;5011685;28;20085;-67
2022/03/30 12:34:15;;;;;;;7.65;3.70;;;;;;;;;;5020345;28;20022;-67
2022/03/30 12:36:46;;;;;;;8.13;3.67;;;;;;;;;;5015852;28;20053;-68
2022/03/30 12:39:19;;;;;;;8.45;4.05;;;;;;;;;;5015434;28;20061;-66
2022/03/30 12:41:55;;;;;;;11.40;4.45;;;;;;;;;;4997159;28;20026;-68
2022/03/30 12:44:21;;;;;;;8.10;4.25;;;;;;;;;;5012309;28;20131;-67
2022/03/30 12:46:47;;;;;;;10.90;4.38;;;;;;;;;;5012669;28;20042;-67
2022/03/30 12:49:13;;;;;;;9.13;4.38;;;;;;;;;;5010218;28;20402;-67
2022/03/30 12:51:40;;;;;;;8.90;4.28;;;;;;;;;;5014713;28;20030;-68
2022/03/30 12:54:20;;;;;;;9.18;4.90;;;;;;;;;;5013541;28;20021;-66
2022/03/30 12:56:46;;;;;;;10.10;5.28;;;;;;;;;;5009109;28;20038;-67
2022/03/30 12:59:18;;;;;;;13.13;4.93;;;;;;;;;;5012391;28;20029;-67
2022/03/30 13:01:46;;;;;;;11.10;4.95;;;;;;;;;;5024668;28;20136;-67
2022/03/30 13:04:30;;;;;;;10.90;4.35;;;;;;;;;;5029322;28;20025;-65
2022/03/30 13:07:13;;;;;;;9.38;5.72;;;;;;;;;;5015270;28;20124;-66
2022/03/30 13:09:40;;;;;;;11.63;4.75;;;;;;;;;;5011841;28;20509;-67
2022/03/30 13:12:07;;;;;;;11.20;5.03;;;;;;;;;;4993840;28;20061;-66
2022/03/30 13:14:33;;;;;;;8.43;5.13;;;;;;;;;;5004944;28;20037;-66
2022/03/30 13:17:06;;;;;;;11.10;5.28;;;;;;;;;;5013100;28;20029;-65
2022/03/30 13:19:32;;;;;;;14.98;5.85;;;;;;;;;;5011732;28;20037;-66
2022/03/30 13:21:58;;;;;;;9.20;4.75;;;;;;;;;;5014637;28;20038;-65
2022/03/30 13:24:26;;;;;;;10.07;4.00;;;;;;;;;;5013076;28;20044;-65
2022/03/30 13:26:56;;;;;;;6.72;4.20;;;;;;;;;;4998740;28;20491;-66
2022/03/30 13:29:22;;;;;;;7.68;4.47;;;;;;;;;;4995453;28;20113;-67
2022/03/30 13:31:49;;;;;;;6.32;4.20;;;;;;;;;;5008079;28;20092;-66
2022/03/30 13:34:20;;;;;;;8.77;3.70;;;;;;;;;;5013030;28;20030;-66
2022/03/30 13:36:46;;;;;;;9.23;4.68;;;;;;;;;;5015260;28;20621;-67
2022/03/30 13:39:15;;;;;;;12.70;4.45;;;;;;;;;;5009443;28;20064;-68
2022/03/30 13:41:41;;;;;;;8.88;3.70;;;;;;;;;;5010820;28;20182;-67
2022/03/30 13:44:07;;;;;;;7.85;3.53;;;;;;;;;;5015789;28;20037;-68
2022/03/30 13:46:34;;;;;;;11.88;5.45;;;;;;;;;;5013752;28;20025;-67
2022/03/30 13:49:00;;;;;;;9.30;5.25;;;;;;;;;;5013530;28;20034;-67
2022/03/30 13:51:26;;;;;;;9.80;4.90;;;;;;;;;;5025297;28;20055;-68
2022/03/30 13:53:52;;;;;;;5.80;3.65;;;;;;;;;;5012478;28;20079;-67
2022/03/30 13:56:18;;;;;;;10.45;4.43;;;;;;;;;;5012477;28;20069;-68
2022/03/30 13:58:44;;;;;;;10.45;5.78;;;;;;;;;;5013467;28;20030;-68
2022/03/30 14:01:11;;;;;;;10.50;4.60;;;;;;;;;;5013372;28;20113;-68
2022/03/30 14:03:38;;;;;;;10.40;4.43;;;;;;;;;;5012794;28;20120;-68
2022/03/30 14:06:05;;;;;;;9.88;5.45;;;;;;;;;;5010468;28;20465;-67
2022/03/30 14:08:31;;;;;;;11.93;4.60;;;;;;;;;;5011009;28;20107;-67
2022/03/30 14:10:58;;;;;;;6.97;4.28;;;;;;;;;;5012211;28;20559;-68
2022/03/30 14:13:24;;;;;;;8.00;4.10;;;;;;;;;;5015256;28;20029;-68
2022/03/30 14:15:50;;;;;;;13.05;5.00;;;;;;;;;;5028741;28;20308;-68
2022/03/30 14:18:17;;;;;;;11.30;4.50;;;;;;;;;;5012462;28;20158;-65
2022/03/30 14:20:43;;;;;;;11.25;5.40;;;;;;;;;;5010746;28;20085;-70
2022/03/30 14:23:09;;;;;;;8.70;4.93;;;;;;;;;;5010137;28;20030;-69
2022/03/30 14:25:36;;;;;;;8.45;5.07;;;;;;;;;;5012923;28;20046;-68
2022/03/30 14:28:02;;;;;;;11.15;4.35;;;;;;;;;;5011973;28;20474;-67
2022/03/30 14:30:30;;;;;;;8.68;5.22;;;;;;;;;;5020107;28;20077;-69
2022/03/30 14:32:57;;;;;;;7.97;4.60;;;;;;;;;;5021050;28;20030;-69
2022/03/30 14:35:23;;;;;;;8.52;4.43;;;;;;;;;;5024768;28;20018;-69
2022/03/30 14:37:49;;;;;;;5.57;3.80;;;;;;;;;;5029427;28;20057;-69
2022/03/30 14:40:15;;;;;;;6.57;4.00;;;;;;;;;;5019241;28;20034;-70
2022/03/30 14:42:41;;;;;;;8.27;4.18;;;;;;;;;;5029189;28;20059;-68
2022/03/30 14:45:07;;;;;;;8.10;3.80;;;;;;;;;;5035291;28;20137;-68
2022/03/30 14:47:34;;;;;;;8.52;3.72;;;;;;;;;;5041327;28;20033;-67
2022/03/30 14:50:00;;;;;;;9.50;3.95;;;;;;;;;;5018362;28;20037;-67
2022/03/30 14:52:26;;;;;;;7.40;3.95;;;;;;;;;;5012782;28;20025;-68
2022/03/30 14:54:55;;;;;;;6.90;3.75;;;;;;;;;;5012400;28;20032;-69
2022/03/30 14:57:21;;;;;;;8.75;4.05;;;;;;;;;;5012833;28;20410;-69
2022/03/30 14:59:47;;;;;;;8.02;3.58;;;;;;;;;;5032339;28;20053;-68
2022/03/30 15:02:13;;;;;;;6.40;3.67;;;;;;;;;;5045212;28;20068;-68
2022/03/30 15:04:39;;;;;;;4.95;3.47;;;;;;;;;;5027903;28;20097;-69
2022/03/30 15:07:05;;;;;;;6.38;3.80;;;;;;;;;;5011958;28;20089;-66
2022/03/30 15:09:32;;;;;;;5.82;3.22;;;;;;;;;;5008241;28;20026;-66
2022/03/30 15:11:58;;;;;;;6.50;4.00;;;;;;;;;;5005121;28;20061;-66
2022/03/30 15:14:24;;;;;;;6.07;3.33;;;;;;;;;;5014652;28;20490;-67
2022/03/30 15:16:50;;;;;;;7.70;3.80;;;;;;;;;;5015674;28;20032;-67
2022/03/30 15:19:16;;;;;;;6.53;3.58;;;;;;;;;;5010646;28;20032;-68
2022/03/30 15:21:42;;;;;;;6.00;4.00;;;;;;;;;;5021832;28;20409;-68
2022/03/30 15:24:09;;;;;;;8.13;3.30;;;;;;;;;;5019288;28;20026;-68
2022/03/30 15:26:36;;;;;;;5.85;3.30;;;;;;;;;;5015281;28;20057;-69
2022/03/30 15:29:02;;;;;;;4.70;3.47;;;;;;;;;;5015849;28;20056;-69
2022/03/30 15:31:31;;;;;;;5.05;3.40;;;;;;;;;;5014047;28;20467;-69
2022/03/30 15:33:57;;;;;;;6.88;3.72;;;;;;;;;;5010409;28;20394;-68
2022/03/30 15:36:23;;;;;;;8.73;3.83;;;;;;;;;;5014810;28;20033;-68
2022/03/30 15:38:49;;;;;;;4.00;2.75;;;;;;;;;;5010306;28;20038;-69
2022/03/30 15:41:15;;;;;;;4.68;2.67;;;;;;;;;;5010820;28;20096;-67
2022/03/30 15:43:42;;;;;;;3.88;2.55;;;;;;;;;;5013893;28;20038;-65
2022/03/30 15:46:08;;;;;;;5.28;3.13;;;;;;;;;;5005625;28;20029;-65
2022/03/30 15:48:35;;;;;;;4.88;2.70;;;;;;;;;;5004685;28;20057;-66
2022/03/30 15:51:02;;;;;;;5.00;2.60;;;;;;;;;;5019679;28;20014;-67
2022/03/30 15:53:28;;;;;;;3.92;2.67;;;;;;;;;;4999258;28;20026;-66
2022/03/30 15:55:54;;;;;;;5.78;2.95;;;;;;;;;;5013205;28;20022;-67
2022/03/30 15:58:20;;;;;;;7.65;2.58;;;;;;;;;;5009269;28;20042;-67
2022/03/30 16:00:46;;;;;;;5.40;2.83;;;;;;;;;;5013666;28;20131;-67
2022/03/30 16:03:12;;;;;;;3.95;2.20;;;;;;;;;;5018209;28;20064;-67
2022/03/30 16:05:38;;;;;;;8.05;2.40;;;;;;;;;;5013692;28;20025;-67
2022/03/30 16:12:09;;;;;;;4.57;2.25;;;;;;;;;;5011787;28;20434;-66
2022/03/30 16:13:38;;;;;;;4.13;2.22;;;;;;;;;;5006330;28;20099;-67
2022/03/30 16:16:04;;;;;;;7.88;2.20;;;;;;;;;;5011260;28;20030;-67
2022/03/30 16:18:30;;;;;;;7.20;2.60;;;;;;;;;;5013312;28;20506;-67
2022/03/30 16:20:56;;;;;;;3.80;2.47;;;;;;;;;;5013871;28;20462;-67
2022/03/30 16:23:22;;;;;;;5.20;2.38;;;;;;;;;;5014742;28;20058;-67
2022/03/30 16:25:48;;;;;;;4.70;2.15;;;;;;;;;;5012345;28;20030;-66
2022/03/30 16:28:14;;;;;;;6.47;2.40;;;;;;;;;;5012140;28;20098;-67
2022/03/30 16:30:40;;;;;;;5.22;2.72;;;;;;;;;;5019148;28;20037;-67
2022/03/30 16:33:06;;;;;;;5.80;2.40;;;;;;;;;;5012622;28;20492;-67
2022/03/30 16:35:33;;;;;;;6.18;2.17;;;;;;;;;;5000758;28;20406;-67
2022/03/30 16:38:00;;;;;;;3.28;2.17;;;;;;;;;;5012659;28;20045;-68
2022/03/30 16:40:26;;;;;;;4.97;2.10;;;;;;;;;;5011389;28;20180;-67
2022/03/30 16:42:54;;;;;;;2.45;2.00;;;;;;;;;;5002363;28;20034;-68
2022/03/30 16:45:21;;;;;;;5.00;3.00;;;;;;;;;;5010223;28;20041;-68
2022/03/30 16:47:47;;;;;;;4.15;1.90;;;;;;;;;;5013174;28;20151;-67
2022/03/30 16:50:13;;;;;;;3.83;2.08;;;;;;;;;;5011499;28;20034;-67
2022/03/30 16:52:44;;;;;;;5.93;2.53;;;;;;;;;;5012143;28;20029;-67
2022/03/30 16:55:10;;;;;;;7.05;3.00;;;;;;;;;;5016092;28;20033;-68
2022/03/30 16:57:36;;;;;;;4.85;2.40;;;;;;;;;;5027795;28;20029;-67
2022/03/30 17:00:02;;;;;;;4.18;2.25;;;;;;;;;;5029173;28;20152;-67
2022/03/30 17:02:29;;;;;;;3.42;2.40;;;;;;;;;;5017170;28;20512;-67
2022/03/30 17:04:55;;;;;;;40.20;17.05;;;;;;;;;;5014203;28;20546;-68
2022/03/30 17:07:21;;;;;;;5.15;2.35;;;;;;;;;;5019644;28;20192;-68
2022/03/30 17:10:02;;;;;;;5.53;2.63;;;;;;;;;;5036320;28;20119;-68
2022/03/30 17:12:29;;;;;;;4.07;2.10;;;;;;;;;;5015585;28;20108;-68
2022/03/30 17:14:55;;;;;;;4.78;2.60;;;;;;;;;;5015652;28;20022;-68
2022/03/30 17:17:22;;;;;;;5.30;3.08;;;;;;;;;;5012132;28;20108;-67
2022/03/30 17:19:50;;;;;;;5.28;2.55;;;;;;;;;;5010348;28;20037;-68
2022/03/30 17:22:21;;;;;;;5.10;2.85;;;;;;;;;;5008606;28;20054;-68
2022/03/30 17:24:50;;;;;;;5.10;2.47;;;;;;;;;;4994906;28;20057;-68
2022/03/30 17:27:16;;;;;;;5.20;2.63;;;;;;;;;;5013193;28;20019;-69
2022/03/30 17:29:43;;;;;;;6.22;2.75;;;;;;;;;;5019691;28;20042;-69
2022/03/30 17:32:09;;;;;;;3.47;2.10;;;;;;;;;;5014980;28;20123;-69
2022/03/30 17:34:35;;;;;;;4.75;2.20;;;;;;;;;;5017466;28;20033;-70
2022/03/30 17:37:01;;;;;;;5.32;2.67;;;;;;;;;;5015183;28;20030;-71
2022/03/30 17:39:28;;;;;;;5.15;2.58;;;;;;;;;;5013204;28;20234;-67
2022/03/30 17:41:54;;;;;;;7.18;2.70;;;;;;;;;;5019076;28;20034;-70
2022/03/30 17:44:20;;;;;;;6.05;2.47;;;;;;;;;;5021054;28;20022;-69
2022/03/30 17:46:46;;;;;;;3.67;2.53;;;;;;;;;;5013169;28;20137;-70
2022/03/30 17:52:00;;;;;;;10.48;5.70;;;;;;;;;;5020576;28;20060;-69
2022/03/30 17:54:30;;;;;;;4.47;2.80;;;;;;;;;;5016610;28;20105;-68
2022/03/30 17:56:56;;;;;;;7.75;2.55;;;;;;;;;;5025032;28;20030;-69
2022/03/30 17:59:23;;;;;;;5.18;2.70;;;;;;;;;;5011300;28;20037;-67
2022/03/30 18:01:50;;;;;;;4.22;2.20;;;;;;;;;;5006494;28;20423;-67
2022/03/30 18:04:16;;;;;;;5.78;2.72;;;;;;;;;;5006896;28;20534;-68
2022/03/30 18:06:43;;;;;;;4.05;2.17;;;;;;;;;;5002631;28;20517;-69